sensor_id;sensor_type;location;lat;lon;timestamp;pressure;altitude;pressure_sealevel;temperature;humidity
79534;BME280;68982;52.160;6.736;2023-04-24T00:00:30;99666.00;;;9.21;80.24
79534;BME280;68982;52.160;6.736;2023-04-24T00:02:56;99678.63;;;9.21;80.81
79534;BME280;68982;52.160;6.736;2023-04-24T00:05:23;99675.94;;;9.21;81.04
79534;BME280;68982;52.160;6.736;2023-04-24T00:07:48;99676.75;;;9.21;81.11
79534;BME280;68982;52.160;6.736;2023-04-24T00:10:14;99682.53;;;9.25;81.09
79534;BME280;68982;52.160;6.736;2023-04-24T00:12:39;99680.25;;;9.22;81.11
79534;BME280;68982;52.160;6.736;2023-04-24T00:15:05;99683.56;;;9.24;81.28
79534;BME280;68982;52.160;6.736;2023-04-24T00:17:31;99672.19;;;9.28;81.62
79534;BME280;68982;52.160;6.736;2023-04-24T00:19:56;99676.13;;;9.26;81.61
79534;BME280;68982;52.160;6.736;2023-04-24T00:22:26;99681.06;;;9.29;82.20
79534;BME280;68982;52.160;6.736;2023-04-24T00:24:51;99679.00;;;9.31;81.83
79534;BME280;68982;52.160;6.736;2023-04-24T00:27:17;99679.44;;;9.34;81.79
79534;BME280;68982;52.160;6.736;2023-04-24T00:29:42;99664.31;;;9.33;82.07
79534;BME280;68982;52.160;6.736;2023-04-24T00:32:07;99674.88;;;9.28;81.92
79534;BME280;68982;52.160;6.736;2023-04-24T00:34:33;99677.38;;;9.30;81.80
79534;BME280;68982;52.160;6.736;2023-04-24T00:36:58;99687.50;;;9.28;81.71
79534;BME280;68982;52.160;6.736;2023-04-24T00:39:23;99684.00;;;9.27;81.50
79534;BME280;68982;52.160;6.736;2023-04-24T00:41:49;99687.69;;;9.33;81.16
79534;BME280;68982;52.160;6.736;2023-04-24T00:44:16;99673.00;;;9.29;81.52
79534;BME280;68982;52.160;6.736;2023-04-24T00:46:42;99689.56;;;9.32;81.90
79534;BME280;68982;52.160;6.736;2023-04-24T00:49:07;99684.38;;;9.31;81.58
79534;BME280;68982;52.160;6.736;2023-04-24T00:51:33;99688.75;;;9.32;81.71
79534;BME280;68982;52.160;6.736;2023-04-24T00:54:00;99681.50;;;9.32;81.42
79534;BME280;68982;52.160;6.736;2023-04-24T00:56:26;99681.94;;;9.29;81.68
79534;BME280;68982;52.160;6.736;2023-04-24T00:58:52;99679.25;;;9.29;81.56
79534;BME280;68982;52.160;6.736;2023-04-24T01:01:21;99682.94;;;9.22;81.32
79534;BME280;68982;52.160;6.736;2023-04-24T01:03:49;99697.44;;;9.27;81.65
79534;BME280;68982;52.160;6.736;2023-04-24T01:06:16;99677.56;;;9.28;81.55
79534;BME280;68982;52.160;6.736;2023-04-24T01:08:42;99690.19;;;9.28;81.58
79534;BME280;68982;52.160;6.736;2023-04-24T01:11:08;99690.00;;;9.23;81.78
79534;BME280;68982;52.160;6.736;2023-04-24T01:13:34;99685.03;;;9.26;81.63
79534;BME280;68982;52.160;6.736;2023-04-24T01:15:59;99693.91;;;9.27;81.59
79534;BME280;68982;52.160;6.736;2023-04-24T01:18:26;99689.56;;;9.32;81.64
79534;BME280;68982;52.160;6.736;2023-04-24T01:20:54;99695.78;;;9.26;81.81
79534;BME280;68982;52.160;6.736;2023-04-24T01:23:22;99695.59;;;9.28;82.08
79534;BME280;68982;52.160;6.736;2023-04-24T01:25:48;99692.47;;;9.24;82.32
79534;BME280;68982;52.160;6.736;2023-04-24T01:28:14;99694.53;;;9.22;82.52
79534;BME280;68982;52.160;6.736;2023-04-24T01:30:41;99694.53;;;9.22;82.80
79534;BME280;68982;52.160;6.736;2023-04-24T01:33:07;99692.28;;;9.19;82.96
79534;BME280;68982;52.160;6.736;2023-04-24T01:35:32;99693.09;;;9.20;82.77
79534;BME280;68982;52.160;6.736;2023-04-24T01:37:58;99690.00;;;9.16;83.12
79534;BME280;68982;52.160;6.736;2023-04-24T01:40:23;99695.97;;;9.25;82.43
79534;BME280;68982;52.160;6.736;2023-04-24T01:42:49;99694.75;;;9.21;83.06
79534;BME280;68982;52.160;6.736;2023-04-24T01:45:14;99689.59;;;9.19;82.81
79534;BME280;68982;52.160;6.736;2023-04-24T01:47:40;99688.53;;;9.20;83.12
79534;BME280;68982;52.160;6.736;2023-04-24T01:50:06;99697.22;;;9.22;83.15
79534;BME280;68982;52.160;6.736;2023-04-24T01:52:31;99694.53;;;9.22;82.32
79534;BME280;68982;52.160;6.736;2023-04-24T01:55:01;99695.97;;;9.25;82.75
79534;BME280;68982;52.160;6.736;2023-04-24T01:57:27;99692.88;;;9.21;82.79
79534;BME280;68982;52.160;6.736;2023-04-24T01:59:52;99683.16;;;9.20;82.74
79534;BME280;68982;52.160;6.736;2023-04-24T02:02:17;99685.84;;;9.20;83.34
79534;BME280;68982;52.160;6.736;2023-04-24T02:04:43;99675.94;;;9.21;82.83
79534;BME280;68982;52.160;6.736;2023-04-24T02:07:08;99685.22;;;9.25;83.09
79534;BME280;68982;52.160;6.736;2023-04-24T02:09:33;99690.19;;;9.21;83.72
79534;BME280;68982;52.160;6.736;2023-04-24T02:11:59;99681.72;;;9.24;83.80
79534;BME280;68982;52.160;6.736;2023-04-24T02:14:25;99688.34;;;9.22;83.46
79534;BME280;68982;52.160;6.736;2023-04-24T02:16:50;99684.63;;;9.23;83.44
79534;BME280;68982;52.160;6.736;2023-04-24T02:19:16;99685.25;;;9.18;83.59
79534;BME280;68982;52.160;6.736;2023-04-24T02:21:41;99689.38;;;9.14;84.17
79534;BME280;68982;52.160;6.736;2023-04-24T02:24:06;99693.09;;;9.13;84.38
79534;BME280;68982;52.160;6.736;2023-04-24T02:26:32;99689.78;;;9.18;83.80
79534;BME280;68982;52.160;6.736;2023-04-24T02:28:57;99684.63;;;9.09;84.25
79534;BME280;68982;52.160;6.736;2023-04-24T02:31:22;99682.75;;;9.10;84.49
79534;BME280;68982;52.160;6.736;2023-04-24T02:33:48;99689.16;;;9.09;84.96
79534;BME280;68982;52.160;6.736;2023-04-24T02:36:13;99681.31;;;9.07;84.57
79534;BME280;68982;52.160;6.736;2023-04-24T02:38:39;99679.88;;;9.05;84.51
79534;BME280;68982;52.160;6.736;2023-04-24T02:41:04;99693.72;;;9.02;84.58
79534;BME280;68982;52.160;6.736;2023-04-24T02:43:31;99687.94;;;8.98;84.28
79534;BME280;68982;52.160;6.736;2023-04-24T02:45:57;99685.25;;;8.98;84.68
79534;BME280;68982;52.160;6.736;2023-04-24T02:48:22;99681.09;;;8.96;84.15
79534;BME280;68982;52.160;6.736;2023-04-24T02:50:48;99688.75;;;8.92;85.00
79534;BME280;68982;52.160;6.736;2023-04-24T02:53:14;99684.00;;;8.94;84.74
79534;BME280;68982;52.160;6.736;2023-04-24T02:55:39;99688.13;;;8.90;85.13
79534;BME280;68982;52.160;6.736;2023-04-24T02:58:05;99686.69;;;8.87;85.21
79534;BME280;68982;52.160;6.736;2023-04-24T03:00:31;99693.06;;;8.80;85.72
79534;BME280;68982;52.160;6.736;2023-04-24T03:02:56;99693.28;;;8.78;85.79
79534;BME280;68982;52.160;6.736;2023-04-24T03:05:22;99683.38;;;8.79;86.09
79534;BME280;68982;52.160;6.736;2023-04-24T03:07:47;99695.56;;;8.75;86.00
79534;BME280;68982;52.160;6.736;2023-04-24T03:10:12;99694.94;;;8.79;85.63
79534;BME280;68982;52.160;6.736;2023-04-24T03:12:38;99694.94;;;8.73;85.66
79534;BME280;68982;52.160;6.736;2023-04-24T03:15:04;99695.75;;;8.73;86.21
79534;BME280;68982;52.160;6.736;2023-04-24T03:17:29;99693.88;;;8.74;85.99
79534;BME280;68982;52.160;6.736;2023-04-24T03:19:55;99694.50;;;8.69;86.00
79534;BME280;68982;52.160;6.736;2023-04-24T03:22:20;99702.16;;;8.65;86.10
79534;BME280;68982;52.160;6.736;2023-04-24T03:24:45;99697.78;;;8.64;85.73
79534;BME280;68982;52.160;6.736;2023-04-24T03:27:11;99700.28;;;8.66;86.25
79534;BME280;68982;52.160;6.736;2023-04-24T03:29:36;99717.47;;;8.65;86.49
79534;BME280;68982;52.160;6.736;2023-04-24T03:32:01;99698.41;;;8.60;86.19
79534;BME280;68982;52.160;6.736;2023-04-24T03:34:27;99711.03;;;8.59;86.49
79534;BME280;68982;52.160;6.736;2023-04-24T03:36:53;99707.91;;;8.56;86.46
79534;BME280;68982;52.160;6.736;2023-04-24T03:39:18;99711.03;;;8.59;86.49
79534;BME280;68982;52.160;6.736;2023-04-24T03:41:43;99706.91;;;8.63;86.33
79534;BME280;68982;52.160;6.736;2023-04-24T03:44:09;99702.78;;;8.61;86.10
79534;BME280;68982;52.160;6.736;2023-04-24T03:46:34;99709.38;;;8.58;86.35
79534;BME280;68982;52.160;6.736;2023-04-24T03:49:00;99709.59;;;8.63;86.37
79534;BME280;68982;52.160;6.736;2023-04-24T03:51:25;99714.97;;;8.70;85.64
79534;BME280;68982;52.160;6.736;2023-04-24T03:53:52;99706.28;;;8.68;85.56
79534;BME280;68982;52.160;6.736;2023-04-24T03:56:18;99716.63;;;8.71;85.48
79534;BME280;68982;52.160;6.736;2023-04-24T03:58:43;99723.41;;;8.60;85.94
79534;BME280;68982;52.160;6.736;2023-04-24T04:01:08;99719.09;;;8.66;86.20
79534;BME280;68982;52.160;6.736;2023-04-24T04:03:34;99711.03;;;8.59;86.20
79534;BME280;68982;52.160;6.736;2023-04-24T04:05:59;99731.72;;;8.65;86.31
79534;BME280;68982;52.160;6.736;2023-04-24T04:08:25;99729.41;;;8.62;86.87
79534;BME280;68982;52.160;6.736;2023-04-24T04:10:50;99722.22;;;8.63;86.31
79534;BME280;68982;52.160;6.736;2023-04-24T04:13:15;99731.06;;;8.57;86.66
79534;BME280;68982;52.160;6.736;2023-04-24T04:15:41;99727.72;;;8.48;87.41
79534;BME280;68982;52.160;6.736;2023-04-24T04:18:06;99736.22;;;8.52;87.26
79534;BME280;68982;52.160;6.736;2023-04-24T04:20:31;99731.44;;;8.47;87.75
79534;BME280;68982;52.160;6.736;2023-04-24T04:22:57;99735.59;;;8.49;87.49
79534;BME280;68982;52.160;6.736;2023-04-24T04:25:22;99738.47;;;8.48;87.54
79534;BME280;68982;52.160;6.736;2023-04-24T04:27:48;99735.78;;;8.41;87.57
79534;BME280;68982;52.160;6.736;2023-04-24T04:30:14;99736.78;;;8.40;87.76
79534;BME280;68982;52.160;6.736;2023-04-24T04:32:39;99743.63;;;8.43;87.53
79534;BME280;68982;52.160;6.736;2023-04-24T04:35:05;99741.78;;;8.43;87.64
79534;BME280;68982;52.160;6.736;2023-04-24T04:37:34;99733.09;;;8.41;87.28
79534;BME280;68982;52.160;6.736;2023-04-24T04:39:59;99749.00;;;8.43;87.53
79534;BME280;68982;52.160;6.736;2023-04-24T04:42:27;99742.19;;;8.47;87.28
79534;BME280;68982;52.160;6.736;2023-04-24T04:44:53;99759.75;;;8.43;86.88
79534;BME280;68982;52.160;6.736;2023-04-24T04:47:20;99752.94;;;8.47;87.42
79534;BME280;68982;52.160;6.736;2023-04-24T04:49:47;99755.03;;;8.45;86.49
79534;BME280;68982;52.160;6.736;2023-04-24T04:52:13;99763.47;;;8.48;86.00
79534;BME280;68982;52.160;6.736;2023-04-24T04:54:38;99761.63;;;8.49;85.69
79534;BME280;68982;52.160;6.736;2023-04-24T04:57:04;99766.81;;;8.57;85.69
79534;BME280;68982;52.160;6.736;2023-04-24T04:59:29;99757.09;;;8.49;85.99
79534;BME280;68982;52.160;6.736;2023-04-24T05:01:54;99774.88;;;8.57;85.45
79534;BME280;68982;52.160;6.736;2023-04-24T05:04:20;99764.09;;;8.44;86.00
79534;BME280;68982;52.160;6.736;2023-04-24T05:06:45;99771.34;;;8.50;85.40
79534;BME280;68982;52.160;6.736;2023-04-24T05:09:12;99779.41;;;8.50;86.05
79534;BME280;68982;52.160;6.736;2023-04-24T05:11:37;99775.06;;;8.49;86.32
79534;BME280;68982;52.160;6.736;2023-04-24T05:14:03;99773.00;;;8.51;86.10
79534;BME280;68982;52.160;6.736;2023-04-24T05:16:28;99769.69;;;8.49;86.79
79534;BME280;68982;52.160;6.736;2023-04-24T05:18:53;99777.34;;;8.52;86.89
79534;BME280;68982;52.160;6.736;2023-04-24T05:21:19;99777.53;;;8.50;86.64
79534;BME280;68982;52.160;6.736;2023-04-24T05:23:44;99776.09;;;8.48;86.33
79534;BME280;68982;52.160;6.736;2023-04-24T05:26:09;99777.97;;;8.47;86.60
79534;BME280;68982;52.160;6.736;2023-04-24T05:28:35;99785.81;;;8.49;86.82
79534;BME280;68982;52.160;6.736;2023-04-24T05:31:02;99760.09;;;8.40;86.84
79534;BME280;68982;52.160;6.736;2023-04-24T05:33:27;99779.22;;;8.52;86.60
79534;BME280;68982;52.160;6.736;2023-04-24T05:35:52;99788.75;;;8.61;86.28
79534;BME280;68982;52.160;6.736;2023-04-24T05:38:18;99778.41;;;8.58;85.78
79534;BME280;68982;52.160;6.736;2023-04-24T05:40:45;99789.13;;;8.58;85.53
79534;BME280;68982;52.160;6.736;2023-04-24T05:43:10;99780.69;;;8.54;85.70
79534;BME280;68982;52.160;6.736;2023-04-24T05:45:35;99789.53;;;8.48;85.98
79534;BME280;68982;52.160;6.736;2023-04-24T05:48:01;99796.34;;;8.50;86.81
79534;BME280;68982;52.160;6.736;2023-04-24T05:50:27;99787.88;;;8.54;86.68
79534;BME280;68982;52.160;6.736;2023-04-24T05:52:52;99793.25;;;8.54;86.89
79534;BME280;68982;52.160;6.736;2023-04-24T05:55:18;99806.09;;;8.52;86.88
79534;BME280;68982;52.160;6.736;2023-04-24T05:57:44;99794.06;;;8.47;87.00
79534;BME280;68982;52.160;6.736;2023-04-24T06:00:09;99796.53;;;8.49;87.67
79534;BME280;68982;52.160;6.736;2023-04-24T06:02:37;99794.06;;;8.47;88.02
79534;BME280;68982;52.160;6.736;2023-04-24T06:05:03;99793.25;;;8.54;87.47
79534;BME280;68982;52.160;6.736;2023-04-24T06:07:30;99804.44;;;8.57;86.75
79534;BME280;68982;52.160;6.736;2023-04-24T06:09:55;99804.44;;;8.57;87.47
79534;BME280;68982;52.160;6.736;2023-04-24T06:12:22;99810.63;;;8.58;86.54
79534;BME280;68982;52.160;6.736;2023-04-24T06:14:48;99800.50;;;8.53;86.78
79534;BME280;68982;52.160;6.736;2023-04-24T06:17:13;99810.19;;;8.47;86.68
79534;BME280;68982;52.160;6.736;2023-04-24T06:19:39;99815.34;;;8.49;86.42
79534;BME280;68982;52.160;6.736;2023-04-24T06:22:04;99803.19;;;8.53;86.61
79534;BME280;68982;52.160;6.736;2023-04-24T06:24:29;99809.41;;;8.60;86.92
79534;BME280;68982;52.160;6.736;2023-04-24T06:26:55;99815.00;;;8.59;86.38
79534;BME280;68982;52.160;6.736;2023-04-24T06:29:22;99818.09;;;8.62;86.74
79534;BME280;68982;52.160;6.736;2023-04-24T06:31:47;99822.84;;;8.60;86.35
79534;BME280;68982;52.160;6.736;2023-04-24T06:34:12;99833.00;;;8.58;85.52
79534;BME280;68982;52.160;6.736;2023-04-24T06:36:38;99809.78;;;8.50;86.18
79534;BME280;68982;52.160;6.736;2023-04-24T06:39:03;99803.81;;;8.55;86.28
79534;BME280;68982;52.160;6.736;2023-04-24T06:41:29;99815.00;;;8.59;85.90
79534;BME280;68982;52.160;6.736;2023-04-24T06:43:54;99819.72;;;8.50;85.61
79534;BME280;68982;52.160;6.736;2023-04-24T06:46:20;99813.28;;;8.51;86.16
79534;BME280;68982;52.160;6.736;2023-04-24T06:48:48;99811.25;;;8.53;86.20
79534;BME280;68982;52.160;6.736;2023-04-24T06:51:14;99814.16;;;8.52;86.21
79534;BME280;68982;52.160;6.736;2023-04-24T06:53:39;99815.97;;;8.51;86.50
79534;BME280;68982;52.160;6.736;2023-04-24T06:56:05;99812.28;;;8.52;85.61
79534;BME280;68982;52.160;6.736;2023-04-24T06:58:30;99823.03;;;8.52;85.70
79534;BME280;68982;52.160;6.736;2023-04-24T07:00:55;99817.19;;;8.42;85.40
79534;BME280;68982;52.160;6.736;2023-04-24T07:03:21;99815.75;;;8.46;86.00
79534;BME280;68982;52.160;6.736;2023-04-24T07:05:46;99823.41;;;8.49;86.60
79534;BME280;68982;52.160;6.736;2023-04-24T07:08:12;99820.50;;;8.44;85.84
79534;BME280;68982;52.160;6.736;2023-04-24T07:10:38;99820.69;;;8.42;85.75
79534;BME280;68982;52.160;6.736;2023-04-24T07:13:04;99825.28;;;8.48;86.46
79534;BME280;68982;52.160;6.736;2023-04-24T07:15:30;99816.53;;;8.40;87.08
79534;BME280;68982;52.160;6.736;2023-04-24T07:17:55;99828.88;;;8.27;87.96
79534;BME280;68982;52.160;6.736;2023-04-24T07:20:21;99830.13;;;8.32;87.86
79534;BME280;68982;52.160;6.736;2023-04-24T07:22:46;99828.66;;;8.29;87.66
79534;BME280;68982;52.160;6.736;2023-04-24T07:25:13;99840.03;;;8.31;88.31
79534;BME280;68982;52.160;6.736;2023-04-24T07:27:38;99844.72;;;8.22;88.07
79534;BME280;68982;52.160;6.736;2023-04-24T07:30:04;99845.78;;;8.21;88.81
79534;BME280;68982;52.160;6.736;2023-04-24T07:32:30;99849.47;;;8.20;89.51
79534;BME280;68982;52.160;6.736;2023-04-24T07:34:55;99863.78;;;8.27;88.82
79534;BME280;68982;52.160;6.736;2023-04-24T07:37:20;99865.19;;;8.23;89.72
79534;BME280;68982;52.160;6.736;2023-04-24T07:39:46;99862.75;;;8.28;88.78
79534;BME280;68982;52.160;6.736;2023-04-24T07:42:11;99873.31;;;8.30;88.22
79534;BME280;68982;52.160;6.736;2023-04-24T07:44:36;99873.50;;;8.28;89.15
79534;BME280;68982;52.160;6.736;2023-04-24T07:47:02;99878.63;;;8.23;89.00
79534;BME280;68982;52.160;6.736;2023-04-24T07:49:27;99876.59;;;8.25;89.01
79534;BME280;68982;52.160;6.736;2023-04-24T07:51:53;99875.50;;;8.20;89.37
79534;BME280;68982;52.160;6.736;2023-04-24T07:54:18;99878.44;;;8.25;89.58
79534;BME280;68982;52.160;6.736;2023-04-24T07:56:44;99878.63;;;8.23;90.40
79534;BME280;68982;52.160;6.736;2023-04-24T07:59:10;99881.16;;;8.32;89.44
79534;BME280;68982;52.160;6.736;2023-04-24T08:01:36;99890.44;;;8.29;89.51
79534;BME280;68982;52.160;6.736;2023-04-24T08:04:01;99891.91;;;8.32;89.00
79534;BME280;68982;52.160;6.736;2023-04-24T08:06:27;99890.44;;;8.29;88.44
79534;BME280;68982;52.160;6.736;2023-04-24T08:08:57;99890.44;;;8.29;89.21
79534;BME280;68982;52.160;6.736;2023-04-24T08:11:22;99899.75;;;8.33;89.49
79534;BME280;68982;52.160;6.736;2023-04-24T08:13:47;99910.94;;;8.37;89.75
79534;BME280;68982;52.160;6.736;2023-04-24T08:16:13;99904.31;;;8.33;89.49
79534;BME280;68982;52.160;6.736;2023-04-24T08:18:38;99915.28;;;8.38;89.79
79534;BME280;68982;52.160;6.736;2023-04-24T08:21:04;99913.91;;;8.42;89.18
79534;BME280;68982;52.160;6.736;2023-04-24T08:23:29;99918.44;;;8.41;89.68
79534;BME280;68982;52.160;6.736;2023-04-24T08:25:55;99923.81;;;8.41;90.21
79534;BME280;68982;52.160;6.736;2023-04-24T08:28:20;99931.69;;;8.43;89.46
79534;BME280;68982;52.160;6.736;2023-04-24T08:30:46;99929.84;;;8.43;89.67
79534;BME280;68982;52.160;6.736;2023-04-24T08:33:20;99938.75;;;8.50;89.39
79534;BME280;68982;52.160;6.736;2023-04-24T08:35:45;99940.09;;;8.40;89.09
79534;BME280;68982;52.160;6.736;2023-04-24T08:38:10;99938.63;;;8.37;89.70
79534;BME280;68982;52.160;6.736;2023-04-24T08:40:36;99937.06;;;8.43;89.58
79534;BME280;68982;52.160;6.736;2023-04-24T08:43:03;99948.63;;;8.43;89.71
79534;BME280;68982;52.160;6.736;2023-04-24T08:45:29;99944.09;;;8.44;89.62
79534;BME280;68982;52.160;6.736;2023-04-24T08:47:54;99949.91;;;8.47;89.44
79534;BME280;68982;52.160;6.736;2023-04-24T08:50:20;99953.00;;;8.51;89.68
79534;BME280;68982;52.160;6.736;2023-04-24T08:52:47;99954.47;;;8.54;89.88
79534;BME280;68982;52.160;6.736;2023-04-24T08:55:14;99952.38;;;8.49;89.79
79534;BME280;68982;52.160;6.736;2023-04-24T08:57:42;99961.25;;;8.43;89.71
79534;BME280;68982;52.160;6.736;2023-04-24T09:00:10;99960.44;;;8.49;89.61
79534;BME280;68982;52.160;6.736;2023-04-24T09:02:36;99975.00;;;8.40;90.70
79534;BME280;68982;52.160;6.736;2023-04-24T09:05:01;99967.81;;;8.40;90.40
79534;BME280;68982;52.160;6.736;2023-04-24T09:07:30;99961.13;;;8.29;90.71
79534;BME280;68982;52.160;6.736;2023-04-24T09:09:59;99978.75;;;8.39;90.60
79534;BME280;68982;52.160;6.736;2023-04-24T09:12:24;99982.38;;;8.31;90.44
79534;BME280;68982;52.160;6.736;2023-04-24T09:14:50;100003.25;;;8.29;91.16
79534;BME280;68982;52.160;6.736;2023-04-24T09:17:16;100003.44;;;8.27;90.38
79534;BME280;68982;52.160;6.736;2023-04-24T09:19:41;100005.50;;;8.25;90.59
79534;BME280;68982;52.160;6.736;2023-04-24T09:22:07;99999.25;;;8.18;89.53
79534;BME280;68982;52.160;6.736;2023-04-24T09:24:34;100028.31;;;8.15;89.48
79534;BME280;68982;52.160;6.736;2023-04-24T09:27:00;100036.13;;;8.09;89.02
79534;BME280;68982;52.160;6.736;2023-04-24T09:29:29;100042.84;;;7.99;88.22
79534;BME280;68982;52.160;6.736;2023-04-24T09:31:54;100050.75;;;8.07;89.27
79534;BME280;68982;52.160;6.736;2023-04-24T09:34:24;100059.31;;;7.96;88.94
79534;BME280;68982;52.160;6.736;2023-04-24T09:36:50;100060.53;;;7.93;89.80
79534;BME280;68982;52.160;6.736;2023-04-24T09:39:17;100068.34;;;7.88;89.62
79534;BME280;68982;52.160;6.736;2023-04-24T09:41:44;100079.91;;;7.88;89.43
79534;BME280;68982;52.160;6.736;2023-04-24T09:44:30;100082.00;;;7.93;89.61
79534;BME280;68982;52.160;6.736;2023-04-24T09:46:59;100088.16;;;7.87;89.74
79534;BME280;68982;52.160;6.736;2023-04-24T09:49:29;100099.31;;;7.91;90.39
79534;BME280;68982;52.160;6.736;2023-04-24T09:52:06;100099.25;;;7.84;89.97
79534;BME280;68982;52.160;6.736;2023-04-24T09:54:32;100108.59;;;7.88;90.60
79534;BME280;68982;52.160;6.736;2023-04-24T09:56:58;100109.69;;;7.94;90.25
79534;BME280;68982;52.160;6.736;2023-04-24T09:59:25;100115.50;;;7.97;90.19
79534;BME280;68982;52.160;6.736;2023-04-24T10:01:50;100123.63;;;8.04;90.27
79534;BME280;68982;52.160;6.736;2023-04-24T10:04:19;100131.50;;;8.05;90.22
79534;BME280;68982;52.160;6.736;2023-04-24T10:06:46;100131.22;;;8.00;90.09
79534;BME280;68982;52.160;6.736;2023-04-24T10:09:11;100132.16;;;8.07;90.11
79534;BME280;68982;52.160;6.736;2023-04-24T10:11:41;100142.44;;;8.04;90.22
79534;BME280;68982;52.160;6.736;2023-04-24T10:14:09;100148.06;;;8.09;89.72
79534;BME280;68982;52.160;6.736;2023-04-24T10:16:36;100152.88;;;8.14;89.60
79534;BME280;68982;52.160;6.736;2023-04-24T10:19:02;100146.56;;;8.21;89.34
79534;BME280;68982;52.160;6.736;2023-04-24T10:21:28;100152.03;;;8.13;88.90
79534;BME280;68982;52.160;6.736;2023-04-24T10:23:54;100152.25;;;8.12;89.23
79534;BME280;68982;52.160;6.736;2023-04-24T10:26:21;100158.44;;;8.12;89.54
79534;BME280;68982;52.160;6.736;2023-04-24T10:28:48;100155.69;;;8.05;89.02
79534;BME280;68982;52.160;6.736;2023-04-24T10:31:14;100176.69;;;8.02;88.38
79534;BME280;68982;52.160;6.736;2023-04-24T10:33:41;100184.75;;;8.02;88.14
79534;BME280;68982;52.160;6.736;2023-04-24T10:36:09;100187.00;;;7.98;88.18
79534;BME280;68982;52.160;6.736;2023-04-24T10:38:35;100190.50;;;7.99;88.83
79534;BME280;68982;52.160;6.736;2023-04-24T10:41:09;100192.91;;;7.94;89.96
79534;BME280;68982;52.160;6.736;2023-04-24T10:43:39;100192.06;;;7.93;89.90
79534;BME280;68982;52.160;6.736;2023-04-24T10:46:06;100202.53;;;7.88;90.10
79534;BME280;68982;52.160;6.736;2023-04-24T10:48:32;100211.06;;;7.92;89.79
79534;BME280;68982;52.160;6.736;2023-04-24T10:50:57;100209.81;;;8.09;88.98
79534;BME280;68982;52.160;6.736;2023-04-24T10:53:25;100219.47;;;8.18;88.26
79534;BME280;68982;52.160;6.736;2023-04-24T10:56:04;100224.84;;;8.18;86.92
79534;BME280;68982;52.160;6.736;2023-04-24T10:58:49;100228.06;;;8.14;87.99
79534;BME280;68982;52.160;6.736;2023-04-24T11:01:30;100234.47;;;8.13;89.59
79534;BME280;68982;52.160;6.736;2023-04-24T11:04:01;100243.16;;;8.00;89.57
79534;BME280;68982;52.160;6.736;2023-04-24T11:06:30;100253.91;;;8.00;89.43
79534;BME280;68982;52.160;6.736;2023-04-24T11:09:10;100258.28;;;8.01;87.25
79534;BME280;68982;52.160;6.736;2023-04-24T11:11:38;100257.06;;;7.88;87.47
79534;BME280;68982;52.160;6.736;2023-04-24T11:14:09;100256.41;;;7.86;88.95
79534;BME280;68982;52.160;6.736;2023-04-24T11:16:53;100263.06;;;7.91;88.69
79534;BME280;68982;52.160;6.736;2023-04-24T11:19:24;100272.44;;;7.95;87.50
79534;BME280;68982;52.160;6.736;2023-04-24T11:22:03;100269.94;;;8.08;86.85
79534;BME280;68982;52.160;6.736;2023-04-24T11:24:49;100276.13;;;8.23;86.27
79534;BME280;68982;52.160;6.736;2023-04-24T11:27:18;100279.06;;;8.28;86.74
79534;BME280;68982;52.160;6.736;2023-04-24T11:34:48;100289.34;;;8.55;84.89
79534;BME280;68982;52.160;6.736;2023-04-24T11:37:14;100290.09;;;8.63;84.85
79534;BME280;68982;52.160;6.736;2023-04-24T11:39:40;100280.06;;;8.57;85.67
79534;BME280;68982;52.160;6.736;2023-04-24T11:42:06;100302.88;;;8.61;83.61
79534;BME280;68982;52.160;6.736;2023-04-24T11:44:33;100305.00;;;8.51;84.09
79534;BME280;68982;52.160;6.736;2023-04-24T11:46:59;100307.78;;;8.58;83.34
79534;BME280;68982;52.160;6.736;2023-04-24T11:49:25;100313.16;;;8.58;83.21
79534;BME280;68982;52.160;6.736;2023-04-24T11:51:50;100318.44;;;8.66;82.46
79534;BME280;68982;52.160;6.736;2023-04-24T11:54:20;100314.31;;;8.85;82.21
79534;BME280;68982;52.160;6.736;2023-04-24T11:56:47;100308.22;;;8.98;78.40
79534;BME280;68982;52.160;6.736;2023-04-24T11:59:12;100320.00;;;9.40;78.16
79534;BME280;68982;52.160;6.736;2023-04-24T12:01:45;100328.34;;;9.23;78.03
79534;BME280;68982;52.160;6.736;2023-04-24T12:04:11;100327.00;;;9.12;79.92
79534;BME280;68982;52.160;6.736;2023-04-24T12:06:37;100319.91;;;9.05;79.08
79534;BME280;68982;52.160;6.736;2023-04-24T12:09:02;100340.22;;;9.07;78.90
79534;BME280;68982;52.160;6.736;2023-04-24T12:11:27;100340.38;;;9.06;78.36
79534;BME280;68982;52.160;6.736;2023-04-24T12:13:53;100328.72;;;8.99;78.46
79534;BME280;68982;52.160;6.736;2023-04-24T12:16:18;100343.19;;;8.98;77.54
79534;BME280;68982;52.160;6.736;2023-04-24T12:18:45;100352.63;;;8.72;76.03
79534;BME280;68982;52.160;6.736;2023-04-24T12:21:21;100344.16;;;8.75;76.71
79534;BME280;68982;52.160;6.736;2023-04-24T12:23:48;100347.16;;;8.65;76.29
79534;BME280;68982;52.160;6.736;2023-04-24T12:26:20;100361.69;;;8.71;77.41
79534;BME280;68982;52.160;6.736;2023-04-24T12:28:48;100358.47;;;8.61;75.79
79534;BME280;68982;52.160;6.736;2023-04-24T12:31:16;100360.88;;;8.56;78.00
79534;BME280;68982;52.160;6.736;2023-04-24T12:33:42;100371.19;;;8.52;77.90
79534;BME280;68982;52.160;6.736;2023-04-24T12:36:10;100379.81;;;8.47;79.47
79534;BME280;68982;52.160;6.736;2023-04-24T12:38:35;100381.47;;;8.48;79.70
79534;BME280;68982;52.160;6.736;2023-04-24T12:41:07;100376.34;;;8.39;79.57
79534;BME280;68982;52.160;6.736;2023-04-24T12:43:33;100392.31;;;8.55;78.07
79534;BME280;68982;52.160;6.736;2023-04-24T12:45:59;100386.56;;;8.58;76.36
79534;BME280;68982;52.160;6.736;2023-04-24T12:48:28;100389.31;;;8.80;76.86
79534;BME280;68982;52.160;6.736;2023-04-24T12:50:53;100382.94;;;9.02;74.34
79534;BME280;68982;52.160;6.736;2023-04-24T12:53:20;100398.88;;;9.19;74.35
79534;BME280;68982;52.160;6.736;2023-04-24T12:55:46;100384.47;;;9.26;74.76
79534;BME280;68982;52.160;6.736;2023-04-24T12:58:17;100395.34;;;9.40;73.71
79534;BME280;68982;52.160;6.736;2023-04-24T13:00:42;100395.34;;;9.40;73.63
79534;BME280;68982;52.160;6.736;2023-04-24T13:03:09;100395.97;;;9.20;73.10
79534;BME280;68982;52.160;6.736;2023-04-24T13:05:36;100392.44;;;8.98;72.99
79534;BME280;68982;52.160;6.736;2023-04-24T13:08:01;100396.06;;;8.90;74.41